COOK1: Arkansas River Nr Coolidge, KS

                                SHEF ID:       COOK1     ARKANSAS R NR COOLIDGE, KS
STATION TYPE:
Regulating: Stage = 8.00, Flow = 2050

PRECIP STAGE STAGE(2) RIV-FLOW WTR-TEMP CONDUCT BAT-LOAD
in ft ft cfs F umho/cm volt
Ccp-Rev Ccp-Rev Ccp-Rev Ccp-Rev Ccp-Rev Ccp-Rev Ccp-Rev
(America/Chicago)
07/09 00:00 0.00 2.59 2.76 62 73.87 5436 12.95
07/09 01:00 0.00 2.55 2.70 58 72.63 5580 12.89
07/09 02:00 0.00 2.54 2.69 57 71.40 5753 12.89
07/09 03:00 0.00 2.50 2.69 54 70.20 5839 12.89
07/09 04:00 0.00 2.51 2.67 55 68.95 5846 12.89
07/09 05:00 0.00 2.52 2.65 55 67.77 5836 12.83
07/09 06:00 0.00 2.51 2.67 55 66.72 5792 12.83
07/09 07:00 0.00 2.51 2.65 55 65.86 5762 12.77
07/09 08:00 0.00 2.50 2.67 54 65.57 5742 12.83
07/09 09:00 0.00 2.50 2.68 54 66.42 5713 12.89
07/09 10:00 0.00 2.51 2.66 55 68.34 5708 13.07
07/09 11:00 0.00 2.51 2.68 55 71.01 5692 13.53
07/09 12:00 0.00 2.53 2.68 56 73.96 5674 13.71
07/09 13:00 0.00 2.53 2.69 56 77.00 5661 13.77
07/09 14:00 0.00 2.55 2.62 58 79.77 5639 13.83
07/09 15:00 0.00 2.57 2.64 60 82.11 5609 13.83
07/09 16:00 0.00 2.55 2.63 58 83.19 5461 13.77
07/09 17:00 0.00 2.55 2.63 58 84.87 5510 13.42
07/09 18:00 0.00 2.55 2.61 58 84.94 5528 13.30
07/09 19:00 0.00 2.53 2.60 56 84.11 5510 13.18
07/09 20:00 0.00 2.52 2.60 55 82.38 5540 13.12
07/09 21:00 0.00 2.52 2.58 55 80.47 5580 13.07
07/09 22:00 0.00 2.52 2.58 55 78.75 5618 13.00
07/09 23:00 ---- ---- ---- ---- ---- ---- ----
Data processed at Wed 10Jul2024 04:30 GMT

Parsing this webpage?

Checkout our new Data API! CWMSDataAPI (CDA)

Timeseries IDs (TSIDs)

TSIDs used from left to right in the data table
COOL.Precip-Inc.Total.1Hour.1Hour.Ccp-Rev
COOL.Stage.Inst.1Hour.0.Ccp-Rev
COOL.Stage-Alt.Inst.1Hour.0.Ccp-Rev
COOL.Flow.Inst.1Hour.0.Ccp-Rev
COOL.Temp-Water.Inst.1Hour.0.Ccp-Rev
COOL.Cond.Inst.1Hour.0.Ccp-Rev
COOL.Volt-Battery Load.Inst.1Hour.0.Ccp-Rev

                            

All information presented herein is the property of the government of the United States of America and may be revised or deleted at any time without prior notice. Dissemination of this information without the expressed written consent of the Public Affairs Office, Tulsa District U.S. Army Corps of Engineers is strictly prohibited. These data are gathered electronically and, as presented, have NOT undergone any form of quality control. These data are NOT guaranteed to be valid or correct.